Terminal Aerodrome Forecast
Issued by NWS

Home | Current Version | Previous Version | Text Only | Print | Product List | Glossary On
Versions: 1 2 3 4 5 6 7 8 9 10 11 12 13 14
248
FTUS42 TJSJ 252339
TAFJBQ
TAF
TJBQ 252339Z 2600/2624 11008KT P6SM FEW060
     FM261300 09010KT P6SM SCT030 SCT060
     FM262300 11008KT P6SM FEW060
      AMD NOT SKED 2602/2611=

USA.gov is the U.S. government's official web portal to all federal, state and local government web resources and services.